Time;durP1;ratioP1;P1;durP2;ratioP2;P2;SDS_P1;SDS_P2;PMS_P1;PMS_P2;Temp;Humidity;BMP_temperature;BMP_pressure;BME280_temperature;BME280_humidity;BME280_pressure;Samples;Min_cycle;Max_cycle;Signal;HPM_P1;HPM_P2
2022/10/16 00:02:01;;;;;;;2.70;0.70;;;22.40;99.90;;;;;;4952971;29;20275;-81
2022/10/16 00:04:34;;;;;;;2.15;0.70;;;22.40;99.90;;;;;;4950225;29;20193;-77
2022/10/16 00:07:05;;;;;;;2.88;0.60;;;22.50;99.90;;;;;;4952785;29;20261;-78
2022/10/16 00:09:35;;;;;;;1.63;0.52;;;22.50;99.90;;;;;;4949112;29;20193;-82
2022/10/16 00:12:07;;;;;;;2.78;0.55;;;22.70;99.90;;;;;;4951730;29;20585;-78
2022/10/16 00:14:40;;;;;;;1.95;0.60;;;22.80;99.90;;;;;;4946263;29;20198;-78
2022/10/16 00:17:11;;;;;;;9.25;6.30;;;22.80;99.90;;;;;;4949704;29;20708;-83
2022/10/16 00:19:44;;;;;;;4.18;2.92;;;22.90;99.90;;;;;;4950957;28;20189;-80
2022/10/16 00:22:14;;;;;;;15.70;2.35;;;23.00;99.90;;;;;;4951423;29;20193;-78
2022/10/16 00:24:45;;;;;;;3.33;0.70;;;22.90;99.90;;;;;;4948988;29;20189;-79
2022/10/16 00:27:16;;;;;;;5.53;1.15;;;23.00;99.90;;;;;;4951873;29;20185;-79
2022/10/16 00:29:47;;;;;;;2.65;0.70;;;23.10;99.90;;;;;;4951580;29;20203;-82
2022/10/16 00:32:18;;;;;;;2.53;0.80;;;23.20;99.90;;;;;;4952052;29;20197;-80
2022/10/16 00:34:50;;;;;;;3.10;0.80;;;23.20;99.90;;;;;;4951123;29;20189;-75
2022/10/16 00:37:21;;;;;;;2.00;0.80;;;23.30;99.90;;;;;;4948117;29;20658;-81
2022/10/16 00:39:52;;;;;;;3.03;0.63;;;23.20;99.90;;;;;;4953318;29;20193;-80
2022/10/16 00:42:23;;;;;;;3.95;0.60;;;23.20;99.90;;;;;;4951418;29;20627;-78
2022/10/16 00:44:56;;;;;;;3.30;0.80;;;23.30;99.90;;;;;;4955802;29;20189;-78
2022/10/16 00:47:30;;;;;;;2.90;0.63;;;23.40;99.90;;;;;;4953937;29;20291;-78
2022/10/16 00:50:09;;;;;;;3.22;1.00;;;23.40;99.90;;;;;;4952821;28;20232;-80
2022/10/16 00:52:42;;;;;;;4.25;0.70;;;23.50;99.90;;;;;;4954288;29;20200;-78
2022/10/16 00:55:13;;;;;;;2.50;0.70;;;23.70;99.90;;;;;;4951883;29;20661;-76
2022/10/16 00:57:44;;;;;;;2.72;0.70;;;23.60;99.90;;;;;;4950135;29;20204;-77
2022/10/16 01:00:18;;;;;;;3.85;0.70;;;23.50;99.90;;;;;;4954453;29;20217;-77
2022/10/16 01:02:54;;;;;;;2.35;0.82;;;23.70;99.90;;;;;;4953559;29;20211;-77
2022/10/16 01:05:33;;;;;;;9.18;2.15;;;23.80;99.90;;;;;;4951230;29;20193;-76
2022/10/16 01:08:15;;;;;;;2.25;0.70;;;23.70;99.90;;;;;;4948744;29;20204;-75
2022/10/16 01:10:55;;;;;;;1.58;0.57;;;23.40;99.90;;;;;;4953107;29;20217;-79
2022/10/16 01:13:30;;;;;;;4.30;0.80;;;23.10;99.90;;;;;;4947363;29;20201;-80
2022/10/16 01:16:08;;;;;;;5.13;0.75;;;22.90;99.90;;;;;;4956291;29;20197;-78
2022/10/16 01:18:45;;;;;;;3.38;0.98;;;22.70;99.90;;;;;;4956456;29;20197;-78
2022/10/16 01:21:23;;;;;;;6.95;3.40;;;22.50;99.90;;;;;;4955128;29;20213;-77
2022/10/16 01:24:05;;;;;;;3.63;1.20;;;22.50;99.90;;;;;;4954851;29;20193;-73
2022/10/16 01:26:50;;;;;;;3.15;0.90;;;22.50;99.90;;;;;;4955917;29;20279;-77
2022/10/16 01:29:28;;;;;;;3.92;0.70;;;22.50;99.90;;;;;;4953072;29;20205;-77
2022/10/16 01:32:08;;;;;;;2.78;0.88;;;22.30;99.90;;;;;;4950294;28;20208;-77
2022/10/16 01:34:44;;;;;;;3.45;0.80;;;22.20;99.90;;;;;;4952589;29;20203;-77
2022/10/16 01:37:20;;;;;;;3.83;0.77;;;22.00;99.90;;;;;;4953018;29;20196;-77
2022/10/16 01:39:55;;;;;;;3.28;0.77;;;21.90;99.90;;;;;;4954464;29;20201;-77
2022/10/16 01:42:31;;;;;;;2.83;0.70;;;21.80;99.90;;;;;;4954189;29;20201;-77
2022/10/16 01:45:06;;;;;;;3.53;0.90;;;21.80;99.90;;;;;;4950812;29;20227;-78
2022/10/16 01:47:38;;;;;;;3.45;0.98;;;22.00;99.90;;;;;;4953980;29;20232;-76
2022/10/16 01:50:10;;;;;;;3.13;0.70;;;22.10;99.90;;;;;;4951693;28;20232;-76
2022/10/16 01:52:47;;;;;;;3.83;0.55;;;22.10;99.90;;;;;;4953076;29;20328;-77
2022/10/16 01:55:31;;;;;;;5.05;0.98;;;21.90;99.90;;;;;;4949373;29;20193;-76
2022/10/16 01:58:05;;;;;;;2.45;0.75;;;21.90;99.90;;;;;;4955310;29;20197;-76
2022/10/16 02:00:39;;;;;;;2.70;0.70;;;22.00;99.90;;;;;;4951697;29;20224;-76
2022/10/16 02:03:12;;;;;;;4.03;0.80;;;22.10;99.90;;;;;;4951928;29;20203;-77
2022/10/16 02:05:47;;;;;;;3.65;0.82;;;22.10;99.90;;;;;;4954427;29;20283;-78
2022/10/16 02:08:18;;;;;;;5.28;0.70;;;22.10;99.90;;;;;;4954968;29;20200;-75
2022/10/16 02:10:49;;;;;;;4.03;1.00;;;22.20;99.90;;;;;;4950951;29;20211;-76
2022/10/16 02:13:26;;;;;;;4.50;0.60;;;22.30;99.90;;;;;;4954267;28;20197;-77
2022/10/16 02:15:59;;;;;;;2.42;0.60;;;22.30;99.90;;;;;;4952616;29;20207;-76
2022/10/16 02:18:31;;;;;;;5.25;0.60;;;22.20;99.90;;;;;;4955239;29;20190;-76
2022/10/16 02:21:06;;;;;;;5.25;0.80;;;22.40;99.90;;;;;;4955581;29;20587;-75
2022/10/16 02:23:44;;;;;;;3.05;0.88;;;22.40;99.90;;;;;;4955033;29;20200;-76
2022/10/16 02:26:20;;;;;;;4.60;0.70;;;22.40;99.90;;;;;;4947779;29;20208;-76
2022/10/16 02:28:55;;;;;;;3.80;0.65;;;22.50;99.90;;;;;;4947986;29;20201;-76
2022/10/16 02:31:34;;;;;;;4.47;0.90;;;22.60;99.90;;;;;;4953251;29;20221;-76
2022/10/16 02:34:06;;;;;;;2.80;0.68;;;22.50;99.90;;;;;;4952053;29;20224;-76
2022/10/16 02:36:39;;;;;;;2.53;0.70;;;22.60;99.90;;;;;;4949129;29;20209;-77
2022/10/16 02:39:10;;;;;;;4.05;0.77;;;22.50;99.90;;;;;;4948798;29;20202;-77
2022/10/16 02:41:42;;;;;;;2.70;0.63;;;22.20;99.90;;;;;;4951664;28;20255;-77
2022/10/16 02:44:12;;;;;;;4.35;0.80;;;22.10;99.90;;;;;;4946912;28;20201;-77
2022/10/16 02:46:45;;;;;;;3.17;0.73;;;22.20;99.90;;;;;;4949516;29;20197;-77
2022/10/16 02:49:17;;;;;;;3.00;1.00;;;22.30;99.90;;;;;;4949423;29;20233;-84
2022/10/16 02:51:48;;;;;;;2.25;0.70;;;22.40;99.90;;;;;;4950552;28;20279;-79
2022/10/16 02:54:19;;;;;;;4.55;0.75;;;22.60;99.90;;;;;;4948713;29;20700;-78
2022/10/16 02:56:51;;;;;;;4.03;0.70;;;22.60;99.90;;;;;;4953320;29;20205;-78
2022/10/16 02:59:22;;;;;;;5.03;0.82;;;22.30;99.90;;;;;;4947797;29;20208;-77
2022/10/16 03:01:55;;;;;;;6.43;1.10;;;22.20;99.90;;;;;;4947438;29;20303;-76
2022/10/16 03:04:26;;;;;;;5.07;0.77;;;22.30;99.90;;;;;;4947489;29;20205;-84
2022/10/16 03:06:57;;;;;;;2.30;0.60;;;22.40;99.90;;;;;;4955504;29;20223;-81
2022/10/16 03:09:27;;;;;;;3.53;0.63;;;22.60;99.90;;;;;;4950557;29;20200;-86
2022/10/16 03:11:58;;;;;;;2.80;0.70;;;22.60;99.90;;;;;;4948959;29;20200;-77
2022/10/16 03:14:29;;;;;;;3.70;0.60;;;22.50;99.90;;;;;;4947707;29;20203;-79
2022/10/16 03:17:02;;;;;;;3.97;0.93;;;22.20;99.90;;;;;;4951914;29;20204;-81
2022/10/16 03:19:33;;;;;;;3.92;1.20;;;22.00;99.90;;;;;;4942194;29;20189;-78
2022/10/16 03:22:07;;;;;;;4.22;0.80;;;22.10;99.90;;;;;;4946755;29;20219;-76
2022/10/16 03:24:38;;;;;;;2.55;0.70;;;21.90;99.90;;;;;;4955080;29;20189;-77
2022/10/16 03:27:08;;;;;;;4.70;0.93;;;21.90;99.90;;;;;;4945209;29;20197;-77
2022/10/16 03:29:40;;;;;;;2.13;0.57;;;21.90;99.90;;;;;;4945762;29;20201;-78
2022/10/16 03:32:12;;;;;;;3.25;0.82;;;22.00;99.90;;;;;;4953904;29;20203;-76
2022/10/16 03:34:43;;;;;;;2.97;0.90;;;22.20;99.90;;;;;;4945351;29;20562;-76
2022/10/16 03:37:14;;;;;;;2.13;0.70;;;22.10;99.90;;;;;;4944189;29;20292;-77
2022/10/16 03:39:45;;;;;;;2.50;0.55;;;22.10;99.90;;;;;;4953903;29;20193;-76
2022/10/16 03:42:16;;;;;;;5.95;0.88;;;22.20;99.90;;;;;;4950958;29;20584;-74
2022/10/16 03:44:47;;;;;;;2.67;1.00;;;22.30;99.90;;;;;;4954199;29;20204;-78
2022/10/16 03:47:21;;;;;;;3.90;1.33;;;22.10;99.90;;;;;;4953010;29;20559;-74
2022/10/16 03:49:52;;;;;;;4.68;0.80;;;22.10;99.90;;;;;;4950925;28;20223;-74
2022/10/16 03:52:23;;;;;;;4.20;0.55;;;22.10;99.90;;;;;;4951657;29;20203;-74
2022/10/16 03:54:54;;;;;;;1.90;0.60;;;21.90;99.90;;;;;;4949097;29;20327;-75
2022/10/16 03:57:25;;;;;;;5.53;0.80;;;21.90;99.90;;;;;;4951379;29;20200;-76
2022/10/16 03:59:56;;;;;;;3.35;0.70;;;21.80;99.90;;;;;;4954753;29;20208;-76
2022/10/16 04:02:29;;;;;;;3.60;0.70;;;21.90;99.90;;;;;;4953550;29;20216;-75
2022/10/16 04:05:00;;;;;;;3.38;0.55;;;21.90;99.90;;;;;;4947016;29;20204;-75
2022/10/16 04:07:31;;;;;;;2.78;0.68;;;21.90;99.90;;;;;;4948652;29;20264;-75
2022/10/16 04:10:02;;;;;;;1.75;0.70;;;22.00;99.90;;;;;;4956355;29;20686;-76
2022/10/16 04:12:33;;;;;;;4.35;0.63;;;22.00;99.90;;;;;;4951316;29;20204;-74
2022/10/16 04:15:04;;;;;;;4.72;0.90;;;21.90;99.90;;;;;;4952018;29;20245;-79
2022/10/16 04:17:38;;;;;;;5.70;0.77;;;21.70;99.90;;;;;;4953289;29;20197;-74
2022/10/16 04:20:09;;;;;;;5.22;1.25;;;21.80;99.90;;;;;;4949175;29;20817;-74
2022/10/16 04:22:40;;;;;;;2.22;0.60;;;21.80;99.90;;;;;;4953772;29;20689;-74
2022/10/16 04:25:13;;;;;;;4.40;0.80;;;21.80;99.90;;;;;;4954094;29;20280;-75
2022/10/16 04:27:44;;;;;;;5.50;0.70;;;21.80;99.90;;;;;;4951942;29;20244;-75
2022/10/16 04:30:15;;;;;;;3.30;0.75;;;21.90;99.90;;;;;;4958029;29;20550;-74
2022/10/16 04:32:51;;;;;;;5.55;0.73;;;22.00;99.90;;;;;;4948296;29;20197;-77
2022/10/16 04:35:23;;;;;;;4.88;0.65;;;22.00;99.90;;;;;;4952722;29;20205;-75
2022/10/16 04:37:54;;;;;;;4.40;0.75;;;21.70;99.90;;;;;;4950163;29;20189;-75
2022/10/16 04:40:25;;;;;;;4.20;0.80;;;21.60;99.90;;;;;;4956779;29;20196;-76
2022/10/16 04:42:56;;;;;;;3.20;0.70;;;21.50;99.90;;;;;;4945845;29;20597;-77
2022/10/16 04:45:27;;;;;;;3.22;0.70;;;21.40;99.90;;;;;;4954640;29;20200;-75
2022/10/16 04:48:03;;;;;;;2.03;0.57;;;21.40;99.90;;;;;;4949923;29;20200;-76
2022/10/16 04:50:34;;;;;;;2.85;0.60;;;21.40;99.90;;;;;;4949530;29;20227;-76
2022/10/16 04:53:05;;;;;;;2.95;0.70;;;21.50;99.90;;;;;;4953408;29;20583;-75
2022/10/16 04:55:36;;;;;;;3.83;0.80;;;21.50;99.90;;;;;;4949681;29;20192;-75
2022/10/16 04:58:07;;;;;;;2.35;0.60;;;21.60;99.90;;;;;;4954315;29;20293;-75
2022/10/16 05:00:39;;;;;;;4.18;0.70;;;21.60;99.90;;;;;;4954265;29;20567;-75
2022/10/16 05:03:11;;;;;;;2.72;0.60;;;21.60;99.90;;;;;;4953239;29;20273;-74
2022/10/16 05:05:46;;;;;;;2.00;0.70;;;21.50;99.90;;;;;;4953541;28;20209;-75
2022/10/16 05:08:18;;;;;;;2.47;0.68;;;21.50;99.90;;;;;;4949425;29;20196;-75
2022/10/16 05:10:49;;;;;;;3.75;0.68;;;21.50;99.90;;;;;;4951853;29;20205;-75
2022/10/16 05:13:20;;;;;;;2.88;0.50;;;21.40;99.90;;;;;;4953773;29;20554;-77
2022/10/16 05:15:52;;;;;;;3.97;0.90;;;21.40;99.90;;;;;;4951086;29;20201;-76
2022/10/16 05:18:24;;;;;;;4.70;0.80;;;21.40;99.90;;;;;;4950192;29;20212;-75
2022/10/16 05:20:55;;;;;;;4.07;0.63;;;21.40;99.90;;;;;;4954325;29;20208;-75
2022/10/16 05:23:26;;;;;;;4.32;0.70;;;21.40;99.90;;;;;;4950124;29;20226;-75
2022/10/16 05:25:59;;;;;;;4.65;0.77;;;21.50;99.90;;;;;;4954447;29;20216;-76
2022/10/16 05:28:30;;;;;;;2.65;0.70;;;21.50;99.90;;;;;;4955601;29;20201;-76
2022/10/16 05:31:01;;;;;;;5.53;0.80;;;21.40;99.90;;;;;;4954309;29;20209;-77
2022/10/16 05:33:35;;;;;;;2.97;0.75;;;21.40;99.90;;;;;;4953557;29;20283;-74
2022/10/16 05:36:07;;;;;;;5.53;0.70;;;21.30;99.90;;;;;;4953416;29;20255;-75
2022/10/16 05:38:38;;;;;;;2.08;0.60;;;21.20;99.90;;;;;;4953402;29;20552;-76
2022/10/16 05:41:09;;;;;;;2.35;0.68;;;21.20;99.90;;;;;;4944703;29;20691;-75
2022/10/16 05:43:40;;;;;;;3.60;0.60;;;21.10;99.90;;;;;;4953104;29;20224;-76
2022/10/16 05:46:11;;;;;;;4.00;0.70;;;21.00;99.90;;;;;;4955195;29;20271;-75
2022/10/16 05:48:44;;;;;;;2.25;0.60;;;21.00;99.90;;;;;;4954044;29;20192;-75
2022/10/16 05:51:16;;;;;;;4.95;0.75;;;21.00;99.90;;;;;;4953838;28;20221;-76
2022/10/16 05:53:47;;;;;;;5.60;0.80;;;21.00;99.90;;;;;;4952461;29;20237;-76
2022/10/16 05:56:18;;;;;;;4.07;0.88;;;21.00;99.90;;;;;;4935384;29;20197;-76
2022/10/16 05:58:49;;;;;;;2.15;0.55;;;21.10;99.90;;;;;;4953517;29;20646;-74
2022/10/16 06:01:24;;;;;;;3.40;0.55;;;21.00;99.90;;;;;;4948448;29;20217;-76
2022/10/16 06:03:56;;;;;;;2.75;0.73;;;21.00;99.90;;;;;;4954086;29;20601;-74
2022/10/16 06:06:30;;;;;;;2.65;0.60;;;20.90;99.90;;;;;;4955562;29;20197;-75
2022/10/16 06:09:01;;;;;;;4.38;0.73;;;20.70;99.90;;;;;;4951667;29;20256;-75
2022/10/16 06:11:33;;;;;;;5.63;0.80;;;20.70;99.90;;;;;;4955628;29;20594;-74
2022/10/16 06:14:06;;;;;;;3.75;0.70;;;20.60;99.90;;;;;;4954563;29;20197;-74
2022/10/16 06:16:38;;;;;;;3.28;0.60;;;20.70;99.90;;;;;;4954950;28;20201;-76
2022/10/16 06:19:11;;;;;;;3.97;0.80;;;20.70;99.90;;;;;;4953244;29;20212;-75
2022/10/16 06:21:42;;;;;;;3.83;0.60;;;20.60;99.90;;;;;;4955184;29;20300;-75
2022/10/16 06:24:13;;;;;;;4.38;0.95;;;20.60;99.90;;;;;;4952168;29;20235;-76
2022/10/16 06:26:44;;;;;;;2.80;0.47;;;20.50;99.90;;;;;;4954623;29;20189;-76
2022/10/16 06:29:15;;;;;;;4.00;0.50;;;20.50;99.90;;;;;;4952077;29;20204;-75
2022/10/16 06:31:46;;;;;;;4.75;0.80;;;20.50;99.90;;;;;;4949678;29;20189;-75
2022/10/16 06:34:19;;;;;;;4.00;0.85;;;20.50;99.90;;;;;;4955039;29;20657;-75
2022/10/16 06:36:50;;;;;;;4.90;0.70;;;20.40;99.90;;;;;;4953151;29;20646;-74
2022/10/16 06:39:21;;;;;;;5.63;0.70;;;20.40;99.90;;;;;;4955457;29;20223;-75
2022/10/16 06:41:52;;;;;;;2.95;0.70;;;20.40;99.90;;;;;;4952774;29;20561;-75
2022/10/16 06:44:23;;;;;;;1.45;0.65;;;20.30;99.90;;;;;;4951305;29;20207;-76
2022/10/16 06:46:54;;;;;;;4.45;0.70;;;20.10;99.90;;;;;;4951150;29;20203;-75
2022/10/16 06:49:28;;;;;;;2.75;0.82;;;20.10;99.90;;;;;;4946910;29;21793;-75
2022/10/16 06:51:59;;;;;;;4.25;0.90;;;20.10;99.90;;;;;;4951486;29;20251;-75
2022/10/16 06:54:30;;;;;;;3.65;0.82;;;20.10;99.90;;;;;;4949803;28;20229;-77
2022/10/16 06:57:01;;;;;;;1.17;0.60;;;20.10;99.90;;;;;;4949431;28;20207;-76
2022/10/16 06:59:32;;;;;;;2.72;0.75;;;20.00;99.90;;;;;;4948975;29;20228;-75
2022/10/16 07:02:03;;;;;;;3.00;0.70;;;20.00;99.90;;;;;;4949734;29;20272;-76
2022/10/16 07:04:37;;;;;;;4.10;0.93;;;19.90;99.90;;;;;;4948466;29;20560;-75
2022/10/16 07:07:08;;;;;;;3.00;0.70;;;19.80;99.90;;;;;;4945837;29;20203;-74
2022/10/16 07:09:39;;;;;;;4.20;0.95;;;19.80;99.90;;;;;;4948750;29;20665;-75
2022/10/16 07:12:10;;;;;;;3.40;0.90;;;19.70;99.90;;;;;;4950887;29;20287;-76
2022/10/16 07:14:41;;;;;;;4.07;0.80;;;19.70;99.90;;;;;;4950504;29;20204;-74
2022/10/16 07:17:12;;;;;;;3.95;0.75;;;19.60;99.90;;;;;;4950012;29;20205;-74
2022/10/16 07:19:45;;;;;;;2.28;0.60;;;19.70;99.90;;;;;;4949113;29;20197;-75
2022/10/16 07:22:16;;;;;;;3.83;0.80;;;19.70;99.90;;;;;;4948695;29;20235;-74
2022/10/16 07:24:47;;;;;;;2.72;0.80;;;19.60;99.90;;;;;;4949990;29;20231;-74
2022/10/16 07:27:18;;;;;;;3.00;0.70;;;19.50;99.90;;;;;;4950446;29;20193;-74
2022/10/16 07:29:49;;;;;;;4.88;0.75;;;19.60;99.90;;;;;;4948883;28;20203;-74
2022/10/16 07:32:20;;;;;;;2.80;0.82;;;19.40;99.90;;;;;;4951806;29;20251;-74
2022/10/16 07:34:53;;;;;;;5.60;0.73;;;19.40;99.90;;;;;;4950283;29;20215;-74
2022/10/16 07:37:24;;;;;;;3.60;0.80;;;19.40;99.90;;;;;;4948769;29;20202;-74
2022/10/16 07:39:55;;;;;;;5.82;0.82;;;19.40;99.90;;;;;;4950869;29;20193;-74
2022/10/16 07:42:26;;;;;;;3.80;0.95;;;19.40;99.90;;;;;;4953074;29;20219;-75
2022/10/16 07:44:57;;;;;;;5.60;1.10;;;19.30;99.90;;;;;;4948937;29;20209;-74
2022/10/16 07:47:28;;;;;;;4.57;1.13;;;19.30;99.90;;;;;;4951256;29;20193;-74
2022/10/16 07:50:01;;;;;;;5.50;1.20;;;19.30;99.90;;;;;;4952103;29;20193;-74
2022/10/16 07:52:32;;;;;;;4.53;1.10;;;19.20;99.90;;;;;;4949008;28;20212;-75
2022/10/16 07:55:03;;;;;;;6.00;1.35;;;19.20;99.90;;;;;;4950740;29;20231;-74
2022/10/16 07:57:33;;;;;;;2.50;0.93;;;19.10;99.90;;;;;;4951426;29;20276;-75
2022/10/16 08:00:05;;;;;;;3.25;1.00;;;19.10;99.90;;;;;;4949430;29;20703;-75
2022/10/16 08:02:36;;;;;;;4.80;0.75;;;19.00;99.90;;;;;;4949292;29;20692;-74
2022/10/16 08:05:10;;;;;;;4.25;0.88;;;19.00;99.90;;;;;;4949678;29;20205;-74
2022/10/16 08:07:41;;;;;;;3.67;0.80;;;18.90;99.90;;;;;;4951258;29;20201;-74
2022/10/16 08:10:18;;;;;;;4.53;1.00;;;18.90;99.90;;;;;;4949382;29;20207;-74
2022/10/16 08:12:49;;;;;;;5.18;1.10;;;18.80;99.90;;;;;;4949191;29;20227;-74
2022/10/16 08:15:21;;;;;;;3.72;1.20;;;18.80;99.90;;;;;;4950966;29;20193;-75
2022/10/16 08:18:00;;;;;;;3.13;0.88;;;18.80;99.90;;;;;;4951772;29;20209;-75
2022/10/16 08:20:34;;;;;;;5.20;1.08;;;18.70;99.90;;;;;;4951125;29;20219;-75
2022/10/16 08:23:12;;;;;;;2.72;0.98;;;18.70;99.90;;;;;;4952759;29;20217;-76
2022/10/16 08:25:43;;;;;;;3.78;0.90;;;18.60;99.90;;;;;;4951779;29;20652;-74
2022/10/16 08:28:15;;;;;;;3.78;1.00;;;18.60;99.90;;;;;;4943347;29;20202;-74
2022/10/16 08:30:46;;;;;;;3.33;0.90;;;18.50;99.90;;;;;;4949557;29;20201;-74
2022/10/16 08:33:17;;;;;;;5.43;0.82;;;18.50;99.90;;;;;;4948760;29;20197;-75
2022/10/16 08:35:57;;;;;;;3.10;0.80;;;18.50;99.90;;;;;;4951140;29;20197;-74
2022/10/16 08:38:28;;;;;;;4.32;0.80;;;18.50;99.90;;;;;;4949173;29;20207;-75
2022/10/16 08:41:11;;;;;;;3.90;0.90;;;18.50;99.90;;;;;;4950663;28;20205;-73
2022/10/16 08:44:10;;;;;;;2.67;0.80;;;18.50;99.90;;;;;;4954417;29;20744;-75
2022/10/16 08:46:52;;;;;;;3.80;0.90;;;18.40;99.90;;;;;;4951826;29;20290;-74
2022/10/16 08:49:27;;;;;;;4.63;1.00;;;18.40;99.90;;;;;;4948369;29;20647;-74
2022/10/16 08:52:00;;;;;;;5.00;1.17;;;18.40;99.90;;;;;;4950349;29;20208;-77
2022/10/16 08:54:36;;;;;;;4.38;1.23;;;18.40;99.90;;;;;;4954592;28;20243;-77
2022/10/16 08:57:14;;;;;;;3.03;1.10;;;18.40;99.90;;;;;;4951407;29;20283;-77
2022/10/16 08:59:45;;;;;;;2.85;0.80;;;18.40;99.90;;;;;;4956621;29;20196;-77
2022/10/16 09:02:35;;;;;;;3.22;1.15;;;18.40;99.90;;;;;;4954578;29;20200;-76
2022/10/16 09:05:34;;;;;;;4.20;1.00;;;18.40;99.90;;;;;;4949743;29;20228;-76
2022/10/16 09:08:15;;;;;;;4.50;1.05;;;18.30;99.90;;;;;;4952415;29;20213;-75
2022/10/16 09:10:57;;;;;;;5.10;1.10;;;18.30;99.90;;;;;;4950730;29;20203;-74
2022/10/16 09:13:32;;;;;;;2.53;1.17;;;18.40;99.90;;;;;;4948004;29;20205;-75
2022/10/16 09:16:15;;;;;;;2.67;0.80;;;18.40;99.90;;;;;;4949408;29;20201;-76
2022/10/16 09:18:54;;;;;;;3.10;0.80;;;18.30;99.90;;;;;;4953252;29;20201;-76
2022/10/16 09:21:28;;;;;;;3.97;1.02;;;18.30;99.90;;;;;;4952040;29;21263;-75
2022/10/16 09:24:08;;;;;;;3.35;0.80;;;18.30;99.90;;;;;;4955526;29;20223;-76
2022/10/16 09:26:38;;;;;;;3.63;0.90;;;18.20;99.90;;;;;;4954861;29;20686;-76
2022/10/16 09:29:11;;;;;;;3.97;0.90;;;18.20;99.90;;;;;;4953052;29;20212;-75
2022/10/16 09:31:42;;;;;;;1.30;0.55;;;18.20;99.90;;;;;;4956094;29;20201;-76
2022/10/16 09:34:20;;;;;;;1.45;0.60;;;18.10;99.90;;;;;;4951071;29;20217;-75
2022/10/16 09:36:52;;;;;;;5.20;0.80;;;18.10;99.90;;;;;;4956116;29;20555;-75
2022/10/16 09:39:25;;;;;;;2.08;0.70;;;18.10;99.90;;;;;;4951698;29;20281;-75
2022/10/16 09:41:59;;;;;;;4.07;0.80;;;18.10;99.90;;;;;;4953128;29;20199;-75
2022/10/16 09:44:33;;;;;;;2.85;0.88;;;18.10;99.90;;;;;;4954028;29;20215;-74
2022/10/16 09:47:07;;;;;;;2.88;1.00;;;18.10;99.90;;;;;;4953937;29;20242;-74
2022/10/16 09:49:38;;;;;;;7.22;1.30;;;18.10;99.90;;;;;;4954130;29;20200;-74
2022/10/16 09:52:14;;;;;;;3.90;0.80;;;18.10;99.90;;;;;;4954432;28;20216;-76
2022/10/16 09:54:56;;;;;;;2.97;0.95;;;18.10;99.90;;;;;;4948782;29;20703;-74
2022/10/16 09:57:28;;;;;;;2.25;0.80;;;18.10;99.90;;;;;;4945323;29;20199;-76
2022/10/16 10:00:00;;;;;;;5.28;1.02;;;18.20;99.90;;;;;;4952624;29;20185;-76
2022/10/16 10:02:36;;;;;;;5.57;1.02;;;18.10;99.90;;;;;;4954994;29;20200;-75
2022/10/16 10:05:19;;;;;;;3.33;0.93;;;18.10;99.90;;;;;;4955301;29;20207;-75
2022/10/16 10:07:56;;;;;;;6.25;1.50;;;18.10;99.90;;;;;;4950526;29;20201;-76
2022/10/16 10:10:30;;;;;;;4.30;1.05;;;18.10;99.90;;;;;;4950558;29;20200;-79
2022/10/16 10:13:01;;;;;;;2.55;1.20;;;18.10;99.90;;;;;;4954479;29;20204;-77
2022/10/16 10:15:37;;;;;;;3.33;1.00;;;18.00;99.90;;;;;;4950166;29;20692;-76
2022/10/16 10:18:22;;;;;;;4.57;0.88;;;18.00;99.90;;;;;;4952979;29;20404;-76
2022/10/16 10:21:02;;;;;;;2.25;0.80;;;18.00;99.90;;;;;;4952922;29;20205;-74
2022/10/16 10:23:34;;;;;;;3.55;0.80;;;18.00;99.90;;;;;;4954640;29;20216;-76
2022/10/16 10:26:12;;;;;;;3.63;0.82;;;17.90;99.90;;;;;;4954647;29;20197;-77
2022/10/16 10:29:00;;;;;;;5.70;1.17;;;17.90;99.90;;;;;;4949096;29;20198;-74
2022/10/16 10:31:36;;;;;;;3.72;1.05;;;17.90;99.90;;;;;;4948322;29;20193;-75
2022/10/16 10:34:22;;;;;;;4.60;1.00;;;17.90;99.90;;;;;;4950533;29;20207;-77
2022/10/16 10:36:57;;;;;;;3.85;1.00;;;17.90;99.90;;;;;;4955028;29;20196;-76
2022/10/16 10:39:35;;;;;;;5.30;1.30;;;17.80;99.90;;;;;;4947120;29;20201;-76
2022/10/16 10:42:27;;;;;;;5.20;1.00;;;17.80;99.90;;;;;;4951545;29;20543;-74
2022/10/16 10:45:20;;;;;;;3.63;0.95;;;17.80;99.90;;;;;;4954072;29;20743;-76
2022/10/16 10:48:13;;;;;;;6.93;1.10;;;17.80;99.90;;;;;;4952610;29;20728;-74
2022/10/16 10:50:49;;;;;;;5.40;1.00;;;17.80;99.90;;;;;;4954867;29;20186;-78
2022/10/16 10:53:35;;;;;;;5.60;0.90;;;17.80;99.90;;;;;;4950569;29;20235;-75
2022/10/16 10:56:27;;;;;;;6.05;1.23;;;17.80;99.90;;;;;;4954363;29;20272;-74
2022/10/16 10:59:40;;;;;;;3.22;1.08;;;17.90;99.90;;;;;;4951277;29;20207;-73
2022/10/16 11:02:21;;;;;;;8.27;1.60;;;17.90;99.90;;;;;;4912583;29;20204;-74
2022/10/16 11:05:27;;;;;;;6.30;0.90;;;17.90;99.90;;;;;;4951150;29;20688;-74
2022/10/16 11:08:03;;;;;;;4.57;1.27;;;17.90;99.90;;;;;;4950706;29;20201;-74
2022/10/16 11:10:45;;;;;;;6.70;1.13;;;17.90;99.90;;;;;;4945082;29;20204;-74
2022/10/16 11:13:28;;;;;;;8.85;1.20;;;17.90;99.90;;;;;;4952984;29;20197;-75
2022/10/16 11:16:05;;;;;;;6.28;1.17;;;17.90;99.90;;;;;;4953716;29;20601;-75
2022/10/16 11:18:49;;;;;;;12.55;1.40;;;17.90;99.90;;;;;;4951060;29;20193;-74
2022/10/16 11:21:23;;;;;;;4.88;0.80;;;17.90;99.90;;;;;;4947211;29;20202;-78
2022/10/16 11:24:02;;;;;;;6.97;1.15;;;17.90;99.90;;;;;;4946268;29;20225;-79
2022/10/16 11:26:36;;;;;;;6.75;1.00;;;17.90;99.90;;;;;;4947356;29;20204;-80
2022/10/16 11:29:13;;;;;;;6.85;1.20;;;17.90;99.90;;;;;;4953504;29;20208;-79
2022/10/16 11:31:47;;;;;;;6.38;1.00;;;17.80;99.90;;;;;;4951190;29;20193;-79
2022/10/16 11:34:27;;;;;;;5.28;1.27;;;17.80;99.90;;;;;;4950087;29;20200;-79
2022/10/16 11:37:04;;;;;;;7.82;1.30;;;17.90;99.90;;;;;;4950373;29;20185;-77
2022/10/16 11:39:35;;;;;;;6.97;1.00;;;17.90;99.90;;;;;;4949268;29;20206;-77
2022/10/16 11:42:13;;;;;;;8.88;1.35;;;17.80;99.90;;;;;;4950356;29;20328;-75
2022/10/16 11:44:56;;;;;;;9.05;1.25;;;17.90;99.90;;;;;;4952143;29;20216;-77
2022/10/16 11:47:36;;;;;;;8.35;1.40;;;17.80;99.90;;;;;;4951400;29;20193;-75
2022/10/16 11:50:19;;;;;;;8.43;1.30;;;17.80;99.90;;;;;;4953956;29;20193;-76
2022/10/16 11:53:01;;;;;;;7.93;1.35;;;17.80;99.90;;;;;;4949171;28;20201;-75
2022/10/16 11:55:36;;;;;;;10.05;1.30;;;17.70;99.90;;;;;;4951451;28;20591;-75
2022/10/16 11:58:12;;;;;;;6.93;1.50;;;17.70;99.90;;;;;;4950506;29;20188;-75
2022/10/16 12:00:47;;;;;;;10.30;1.55;;;17.70;99.90;;;;;;4951517;29;20196;-75
2022/10/16 12:03:25;;;;;;;10.65;1.50;;;17.70;99.90;;;;;;4951213;29;20200;-78
2022/10/16 12:06:09;;;;;;;6.75;1.73;;;17.70;99.90;;;;;;4950385;29;20204;-75
2022/10/16 12:08:40;;;;;;;7.32;1.20;;;17.70;99.90;;;;;;4951228;29;20197;-75
2022/10/16 12:11:23;;;;;;;12.77;1.55;;;17.70;99.90;;;;;;4948225;29;20200;-75
2022/10/16 12:13:54;;;;;;;7.50;1.38;;;17.70;99.90;;;;;;4952096;29;20208;-75
2022/10/16 12:16:27;;;;;;;5.05;1.05;;;17.60;99.90;;;;;;4950987;29;20664;-75
2022/10/16 12:19:14;;;;;;;7.28;1.10;;;17.70;99.90;;;;;;4956509;29;20201;-75
2022/10/16 12:21:48;;;;;;;7.13;1.30;;;17.60;99.90;;;;;;4952518;29;20214;-76
2022/10/16 12:24:40;;;;;;;5.65;1.33;;;17.60;99.90;;;;;;4954060;29;20259;-75
2022/10/16 12:27:26;;;;;;;8.35;1.42;;;17.50;99.90;;;;;;4955393;29;20741;-74
2022/10/16 12:30:01;;;;;;;7.50;1.40;;;17.60;99.90;;;;;;4953947;29;20197;-75
2022/10/16 12:32:35;;;;;;;5.55;1.02;;;17.50;99.90;;;;;;4954859;29;20200;-74
2022/10/16 12:35:08;;;;;;;8.25;1.33;;;17.50;99.90;;;;;;4947804;29;20219;-74
2022/10/16 12:37:42;;;;;;;5.03;1.08;;;17.40;99.90;;;;;;4951394;29;20204;-74
2022/10/16 12:40:19;;;;;;;8.93;1.33;;;17.40;99.90;;;;;;4953163;29;20197;-75
2022/10/16 12:42:50;;;;;;;7.10;1.23;;;17.30;99.90;;;;;;4950610;29;20198;-75
2022/10/16 12:45:33;;;;;;;5.57;1.10;;;17.30;99.90;;;;;;4953161;29;20691;-74
2022/10/16 12:48:05;;;;;;;5.45;1.10;;;17.30;99.90;;;;;;4956140;29;20201;-74
2022/10/16 12:50:39;;;;;;;8.05;1.15;;;17.30;99.90;;;;;;4952832;29;20659;-75
2022/10/16 12:53:22;;;;;;;6.95;1.00;;;17.30;99.90;;;;;;4950233;29;20201;-74
2022/10/16 12:56:00;;;;;;;8.63;1.23;;;17.20;99.90;;;;;;4952588;28;20685;-74
2022/10/16 12:58:52;;;;;;;6.25;1.30;;;17.20;99.90;;;;;;4952737;29;20673;-75
2022/10/16 13:01:39;;;;;;;11.35;1.27;;;17.10;99.90;;;;;;4951692;29;20212;-74
2022/10/16 13:04:24;;;;;;;7.15;1.33;;;17.10;99.90;;;;;;4955798;29;20208;-74
2022/10/16 13:07:02;;;;;;;10.00;1.05;;;17.10;99.90;;;;;;4947022;29;20216;-74
2022/10/16 13:09:47;;;;;;;8.07;1.10;;;17.00;99.90;;;;;;4953502;29;20196;-74
2022/10/16 13:12:44;;;;;;;6.70;1.30;;;17.00;99.90;;;;;;4952443;29;20205;-74
2022/10/16 13:15:41;;;;;;;5.45;1.00;;;17.00;99.90;;;;;;4953222;29;20198;-74
2022/10/16 13:18:18;;;;;;;7.35;1.15;;;17.00;99.90;;;;;;4953902;28;20201;-76
2022/10/16 13:21:13;;;;;;;7.65;1.17;;;17.00;99.90;;;;;;4944465;29;20202;-75
2022/10/16 13:23:50;;;;;;;7.32;1.15;;;17.00;99.90;;;;;;4955180;29;20691;-74
2022/10/16 13:26:33;;;;;;;8.55;1.27;;;17.00;99.90;;;;;;4954595;28;20212;-74